createdAt,value
2019-01-19T00:00:21.259Z,102076.77
2019-01-19T00:01:21.762Z,102076.02
2019-01-19T00:02:22.041Z,102075.18
2019-01-19T00:03:22.154Z,102074.52
2019-01-19T00:04:22.497Z,102073.50
2019-01-19T00:05:22.833Z,102072.67
2019-01-19T00:06:23.370Z,102071.98
2019-01-19T00:07:22.705Z,102072.08
2019-01-19T00:08:24.292Z,102071.13
2019-01-19T00:09:25.077Z,102070.80
2019-01-19T00:10:25.505Z,102069.64
2019-01-19T00:11:25.931Z,102069.21
2019-01-19T00:12:26.288Z,102068.62
2019-01-19T00:13:26.734Z,102067.36
2019-01-19T00:14:27.345Z,102067.10
2019-01-19T00:15:27.657Z,102067.01
2019-01-19T00:16:27.941Z,102066.48
2019-01-19T00:17:28.307Z,102065.86
2019-01-19T00:18:28.918Z,102065.50
2019-01-19T00:19:29.443Z,102064.91
2019-01-19T00:20:29.929Z,102064.22
2019-01-19T00:20:38.423Z,102055.88
2019-01-19T00:21:38.282Z,102055.45
2019-01-19T00:22:39.593Z,102055.70
2019-01-19T00:23:39.974Z,102055.28
2019-01-19T00:24:40.588Z,102055.05
2019-01-19T00:25:41.180Z,102054.63
2019-01-19T00:26:41.816Z,102054.19
2019-01-19T00:27:42.149Z,102053.60
2019-01-19T00:28:42.580Z,102053.17
2019-01-19T00:29:43.126Z,102052.59
2019-01-19T00:30:43.571Z,102052.12
2019-01-19T00:31:43.605Z,102051.37
2019-01-19T00:32:44.105Z,102051.20
2019-01-19T00:33:44.422Z,102050.75
2019-01-19T00:34:44.788Z,102050.66
2019-01-19T00:35:45.398Z,102049.94
2019-01-19T00:36:46.052Z,102050.01
2019-01-19T00:37:45.799Z,102049.12
2019-01-19T00:38:46.215Z,102049.09
2019-01-19T00:39:46.635Z,102049.07
2019-01-19T00:40:47.397Z,102049.14
2019-01-19T00:41:47.748Z,102048.75
2019-01-19T00:42:47.865Z,102048.33
2019-01-19T00:43:48.651Z,102048.47
2019-01-19T00:44:49.222Z,102048.02
2019-01-19T00:45:48.392Z,102047.42
2019-01-19T00:46:49.901Z,102047.13
2019-01-19T00:47:49.258Z,102047.27
2019-01-19T00:48:49.374Z,102046.58
2019-01-19T00:49:50.145Z,102046.65
2019-01-19T00:50:50.315Z,102046.39
2019-01-19T00:51:52.254Z,102046.09
2019-01-19T00:52:53.225Z,102046.27
2019-01-19T00:53:53.482Z,102046.39
2019-01-19T00:54:52.628Z,102046.56
2019-01-19T00:55:54.666Z,102046.41
2019-01-19T00:56:54.725Z,102046.80
2019-01-19T00:57:54.512Z,102046.61
2019-01-19T00:58:56.602Z,102046.28
2019-01-19T00:59:55.662Z,102046.41
2019-01-19T01:00:57.227Z,102046.31
2019-01-19T01:01:57.634Z,102045.46
2019-01-19T01:02:58.144Z,102045.86
2019-01-19T01:03:58.799Z,102045.27
2019-01-19T01:04:58.177Z,102044.41
2019-01-19T01:05:59.698Z,102044.25
2019-01-19T01:07:00.273Z,102043.98
2019-01-19T01:08:00.982Z,102043.48
2019-01-19T01:09:01.631Z,102043.40
2019-01-19T01:10:02.202Z,102043.03
2019-01-19T01:11:03.003Z,102042.94
2019-01-19T01:12:03.548Z,102042.87
2019-01-19T01:12:17.576Z,102040.91
2019-01-19T01:13:19.002Z,102040.31
2019-01-19T01:14:19.155Z,102040.15
2019-01-19T01:15:19.785Z,102040.31
2019-01-19T01:16:20.374Z,102039.81
2019-01-19T01:17:21.179Z,102039.75
2019-01-19T01:18:21.635Z,102039.42
2019-01-19T01:19:22.197Z,102039.52
2019-01-19T01:20:22.633Z,102039.25
2019-01-19T01:21:23.143Z,102039.02
2019-01-19T01:22:23.786Z,102038.29
2019-01-19T01:23:23.821Z,102038.39
2019-01-19T01:24:24.389Z,102038.45
2019-01-19T01:25:24.794Z,102038.29
2019-01-19T01:26:25.432Z,102038.45
2019-01-19T01:27:25.899Z,102038.62
2019-01-19T01:28:26.525Z,102038.45
2019-01-19T01:29:27.302Z,102038.62
2019-01-19T01:30:27.742Z,102038.88
2019-01-19T01:31:28.338Z,102039.21
2019-01-19T01:32:28.860Z,102039.38
2019-01-19T01:33:29.377Z,102039.45
2019-01-19T01:34:29.936Z,102039.28
2019-01-19T01:35:32.866Z,102039.34
2019-01-19T01:36:30.508Z,102039.52
2019-01-19T01:37:32.075Z,102039.58
2019-01-19T01:38:32.612Z,102039.52
2019-01-19T01:39:33.398Z,102038.92
2019-01-19T01:40:34.071Z,102038.59
2019-01-19T01:41:34.623Z,102037.83
2019-01-19T01:42:35.277Z,102037.83
2019-01-19T01:43:35.782Z,102037.44
2019-01-19T01:44:36.702Z,102037.01
2019-01-19T01:45:37.191Z,102036.58
2019-01-19T01:46:37.725Z,102036.16
2019-01-19T01:47:38.400Z,102035.98
2019-01-19T01:48:38.760Z,102035.42
2019-01-19T01:49:39.293Z,102034.66
2019-01-19T01:50:39.788Z,102034.47
2019-01-19T01:51:40.232Z,102034.30
2019-01-19T01:52:40.821Z,102033.22
2019-01-19T01:52:50.852Z,102028.72
2019-01-19T01:53:52.332Z,102028.29
2019-01-19T01:54:52.797Z,102027.95
2019-01-19T01:55:53.383Z,102027.80
2019-01-19T01:56:54.053Z,102027.63
2019-01-19T01:57:54.683Z,102027.23
2019-01-19T01:58:55.471Z,102026.80
2019-01-19T01:59:56.054Z,102026.20
2019-01-19T02:00:56.588Z,102025.16
2019-01-19T02:01:57.168Z,102024.39
2019-01-19T02:02:57.996Z,102024.13
2019-01-19T02:03:58.550Z,102023.36
2019-01-19T02:04:59.006Z,102023.04
2019-01-19T02:05:59.708Z,102022.61
2019-01-19T02:07:00.166Z,102021.62
2019-01-19T02:08:00.680Z,102021.52
2019-01-19T02:09:01.135Z,102021.09
2019-01-19T02:10:01.692Z,102020.59
2019-01-19T02:11:02.396Z,102020.17
2019-01-19T02:12:02.829Z,102019.25
2019-01-19T02:13:03.454Z,102018.75
2019-01-19T02:14:03.900Z,102018.19
2019-01-19T02:15:04.309Z,102017.27
2019-01-19T02:16:04.962Z,102016.50
2019-01-19T02:17:05.447Z,102015.67
2019-01-19T02:18:06.052Z,102014.98
2019-01-19T02:19:06.562Z,102014.72
2019-01-19T02:20:07.037Z,102014.23
2019-01-19T02:21:07.659Z,102013.63
2019-01-19T02:22:08.195Z,102013.08
2019-01-19T02:23:08.756Z,102012.31
2019-01-19T02:24:09.336Z,102011.78
2019-01-19T02:25:09.909Z,102011.29
2019-01-19T02:26:10.561Z,102010.77
2019-01-19T02:27:11.102Z,102010.27
2019-01-19T02:28:10.633Z,102009.52
2019-01-19T02:29:12.205Z,102009.31
2019-01-19T02:30:12.734Z,102008.83
2019-01-19T02:31:13.232Z,102009.06
2019-01-19T02:32:13.841Z,102008.73
2019-01-19T02:33:14.488Z,102008.53
2019-01-19T02:34:15.128Z,102008.77
2019-01-19T02:35:15.694Z,102008.37
2019-01-19T02:36:16.369Z,102007.67
2019-01-19T02:37:16.831Z,102007.41
2019-01-19T02:37:26.746Z,101999.16
2019-01-19T02:38:27.696Z,101999.23
2019-01-19T02:39:28.212Z,101999.89
2019-01-19T02:40:28.660Z,101999.95
2019-01-19T02:41:29.135Z,101999.79
2019-01-19T02:42:29.663Z,101999.63
2019-01-19T02:43:30.241Z,101999.77
2019-01-19T02:44:30.669Z,101999.33
2019-01-19T02:45:31.183Z,101998.48
2019-01-19T02:46:31.624Z,101997.81
2019-01-19T02:47:32.224Z,101997.39
2019-01-19T02:48:32.738Z,101996.96
2019-01-19T02:49:33.284Z,101996.30
2019-01-19T02:50:33.725Z,101995.70
2019-01-19T02:51:34.274Z,101994.78
2019-01-19T02:52:34.778Z,101993.59
2019-01-19T02:53:35.360Z,101992.51
2019-01-19T02:54:35.901Z,101991.25
2019-01-19T02:55:36.838Z,101990.50
2019-01-19T02:56:37.460Z,101989.14
2019-01-19T02:57:38.141Z,101988.62
2019-01-19T02:58:38.981Z,101987.37
2019-01-19T02:59:39.529Z,101986.21
2019-01-19T03:00:40.226Z,101984.95
2019-01-19T03:01:40.791Z,101983.60
2019-01-19T03:02:41.375Z,101982.78
2019-01-19T03:03:41.809Z,101981.42
2019-01-19T03:04:42.391Z,101980.53
2019-01-19T03:05:42.957Z,101980.27
2019-01-19T03:06:43.620Z,101979.25
2019-01-19T03:07:44.275Z,101978.85
2019-01-19T03:08:44.918Z,101978.09
2019-01-19T03:09:45.513Z,101977.33
2019-01-19T03:10:47.167Z,101976.02
2019-01-19T03:11:46.660Z,101975.09
2019-01-19T03:12:47.101Z,101974.00
2019-01-19T03:13:47.582Z,101973.50
2019-01-19T03:14:48.194Z,101972.84
2019-01-19T03:15:48.823Z,101971.78
2019-01-19T03:16:49.523Z,101971.12
2019-01-19T03:17:50.143Z,101970.20
2019-01-19T03:18:50.670Z,101969.17
2019-01-19T03:19:51.100Z,101969.01
2019-01-19T03:20:01.423Z,101956.82
2019-01-19T03:21:02.810Z,101956.25
2019-01-19T03:22:02.208Z,101956.25
2019-01-19T03:23:03.990Z,101955.99
2019-01-19T03:24:04.515Z,101956.48
2019-01-19T03:25:04.960Z,101956.55
2019-01-19T03:26:05.520Z,101956.55
2019-01-19T03:27:06.004Z,101956.30
2019-01-19T03:28:06.474Z,101955.94
2019-01-19T03:29:06.916Z,101955.74
2019-01-19T03:30:07.273Z,101955.78
2019-01-19T03:31:07.766Z,101955.42
2019-01-19T03:32:08.147Z,101955.13
2019-01-19T03:33:08.705Z,101954.77
2019-01-19T03:34:09.270Z,101954.08
2019-01-19T03:35:09.666Z,101953.81
2019-01-19T03:36:10.321Z,101953.33
2019-01-19T03:37:10.863Z,101953.13
2019-01-19T03:38:11.446Z,101952.30
2019-01-19T03:39:12.189Z,101951.71
2019-01-19T03:40:12.959Z,101951.09
2019-01-19T03:41:13.516Z,101950.98
2019-01-19T03:42:14.080Z,101950.49
2019-01-19T03:43:14.757Z,101949.91
2019-01-19T03:44:15.248Z,101949.47
2019-01-19T03:45:15.741Z,101949.05
2019-01-19T03:46:16.406Z,101948.45
2019-01-19T03:47:17.191Z,101948.05
2019-01-19T03:48:17.779Z,101947.53
2019-01-19T03:49:18.675Z,101947.09
2019-01-19T03:50:19.165Z,101946.70
2019-01-19T03:51:19.624Z,101946.38
2019-01-19T03:52:20.131Z,101946.54
2019-01-19T03:53:20.514Z,101945.68
2019-01-19T03:54:21.204Z,101945.45
2019-01-19T03:55:21.680Z,101945.42
2019-01-19T03:56:22.185Z,101945.23
2019-01-19T03:57:22.745Z,101944.87
2019-01-19T03:58:23.262Z,101944.77
2019-01-19T03:59:23.809Z,101944.91
2019-01-19T04:00:24.446Z,101944.74
2019-01-19T04:01:25.090Z,101944.70
2019-01-19T04:02:25.590Z,101944.45
2019-01-19T04:02:35.593Z,101943.20
2019-01-19T04:03:35.987Z,101942.11
2019-01-19T04:04:37.557Z,101942.11
2019-01-19T04:05:38.445Z,101941.55
2019-01-19T04:06:39.195Z,101941.63
2019-01-19T04:07:39.747Z,101941.63
2019-01-19T04:08:40.264Z,101941.36
2019-01-19T04:09:41.795Z,101941.13
2019-01-19T04:10:41.743Z,101941.13
2019-01-19T04:11:42.217Z,101941.63
2019-01-19T04:12:42.718Z,101941.19
2019-01-19T04:13:43.337Z,101941.09
2019-01-19T04:14:44.059Z,101940.66
2019-01-19T04:15:43.577Z,101940.44
2019-01-19T04:16:45.241Z,101940.44
2019-01-19T04:17:45.986Z,101940.17
2019-01-19T04:18:46.496Z,101940.17
2019-01-19T04:19:45.564Z,101939.58
2019-01-19T04:20:47.134Z,101938.66
2019-01-19T04:21:47.645Z,101937.66
2019-01-19T04:22:48.125Z,101937.00
2019-01-19T04:23:47.757Z,101936.27
2019-01-19T04:24:49.164Z,101935.19
2019-01-19T04:25:49.747Z,101934.86
2019-01-19T04:26:50.242Z,101933.27
2019-01-19T04:27:50.799Z,101932.77
2019-01-19T04:28:51.367Z,101932.55
2019-01-19T04:29:51.807Z,101931.69
2019-01-19T04:30:52.474Z,101931.29
2019-01-19T04:31:53.192Z,101930.59
2019-01-19T04:32:53.726Z,101929.87
2019-01-19T04:33:54.392Z,101929.38
2019-01-19T04:34:54.869Z,101928.38
2019-01-19T04:35:55.714Z,101927.63
2019-01-19T04:36:56.208Z,101927.06
2019-01-19T04:37:56.927Z,101926.06
2019-01-19T04:38:57.445Z,101925.24
2019-01-19T04:39:58.026Z,101924.52
2019-01-19T04:40:58.689Z,101924.55
2019-01-19T04:41:59.480Z,101923.88
2019-01-19T04:43:00.040Z,101923.72
2019-01-19T04:44:00.588Z,101922.89
2019-01-19T04:45:01.240Z,101922.80
2019-01-19T04:46:02.023Z,101922.46
2019-01-19T04:47:02.587Z,101922.39
2019-01-19T04:47:12.611Z,101922.77
2019-01-19T04:48:13.119Z,101922.20
2019-01-19T04:49:13.570Z,101922.37
2019-01-19T04:50:14.009Z,101921.94
2019-01-19T04:51:14.737Z,101922.27
2019-01-19T04:52:15.268Z,101922.00
2019-01-19T04:53:15.828Z,101922.17
2019-01-19T04:54:16.230Z,101922.27
2019-01-19T04:55:16.749Z,101922.50
2019-01-19T04:56:17.365Z,101922.90
2019-01-19T04:57:17.942Z,101923.13
2019-01-19T04:58:18.444Z,101923.80
2019-01-19T04:59:18.890Z,101923.86
2019-01-19T05:00:19.433Z,101924.23
2019-01-19T05:01:20.003Z,101924.39
2019-01-19T05:02:20.950Z,101924.40
2019-01-19T05:03:21.426Z,101924.77
2019-01-19T05:04:21.845Z,101925.03
2019-01-19T05:05:22.298Z,101925.33
2019-01-19T05:06:30.205Z,101925.56
2019-01-19T05:07:22.367Z,101926.36
2019-01-19T05:08:23.859Z,101926.85
2019-01-19T05:09:24.437Z,101926.76
2019-01-19T05:10:25.027Z,101926.13
2019-01-19T05:11:25.556Z,101926.03
2019-01-19T05:12:26.148Z,101926.08
2019-01-19T05:13:26.683Z,101925.68
2019-01-19T05:14:27.338Z,101925.75
2019-01-19T05:15:28.161Z,101925.03
2019-01-19T05:16:28.700Z,101924.94
2019-01-19T05:17:29.173Z,101924.20
2019-01-19T05:18:29.645Z,101924.12
2019-01-19T05:19:30.052Z,101923.89
2019-01-19T05:20:30.471Z,101923.62
2019-01-19T05:21:30.890Z,101923.43
2019-01-19T05:22:31.461Z,101923.23
2019-01-19T05:23:32.080Z,101923.04
2019-01-19T05:24:32.433Z,101922.19
2019-01-19T05:25:32.918Z,101921.76
2019-01-19T05:26:33.452Z,101921.39
2019-01-19T05:27:33.782Z,101920.80
2019-01-19T05:28:34.163Z,101920.11
2019-01-19T05:28:44.266Z,101913.23
2019-01-19T05:29:45.570Z,101912.80
2019-01-19T05:30:46.318Z,101912.80
2019-01-19T05:31:46.872Z,101912.20
2019-01-19T05:32:47.624Z,101911.87
2019-01-19T05:33:48.207Z,101911.71
2019-01-19T05:34:48.930Z,101911.81
2019-01-19T05:35:49.654Z,101912.14
2019-01-19T05:36:50.131Z,101911.87
2019-01-19T05:37:50.469Z,101911.35
2019-01-19T05:38:50.918Z,101910.86
2019-01-19T05:39:50.319Z,101910.49
2019-01-19T05:40:51.898Z,101910.83
2019-01-19T05:41:52.351Z,101910.83
2019-01-19T05:42:52.709Z,101910.30
2019-01-19T05:43:53.086Z,101910.14
2019-01-19T05:44:53.676Z,101910.50
2019-01-19T05:45:54.125Z,101910.50
2019-01-19T05:46:55.769Z,101910.70
2019-01-19T05:47:55.124Z,101910.91
2019-01-19T05:48:55.493Z,101911.13
2019-01-19T05:49:56.075Z,101910.67
2019-01-19T05:50:56.369Z,101910.78
2019-01-19T05:51:56.948Z,101910.25
2019-01-19T05:52:56.202Z,101910.38
2019-01-19T05:53:57.540Z,101910.78
2019-01-19T05:54:58.016Z,101910.84
2019-01-19T05:55:58.380Z,101910.66
2019-01-19T05:56:58.820Z,101911.37
2019-01-19T05:57:59.295Z,101911.34
2019-01-19T05:59:00.022Z,101911.37
2019-01-19T06:00:00.516Z,101911.87
2019-01-19T06:01:00.912Z,101912.01
2019-01-19T06:02:01.472Z,101912.21
2019-01-19T06:03:01.794Z,101912.18
2019-01-19T06:04:02.296Z,101912.88
2019-01-19T06:05:02.788Z,101913.11
2019-01-19T06:06:03.291Z,101913.80
2019-01-19T06:07:03.802Z,101914.09
2019-01-19T06:08:04.276Z,101914.27
2019-01-19T06:09:04.680Z,101914.39
2019-01-19T06:10:05.284Z,101914.63
2019-01-19T06:11:05.677Z,101914.56
2019-01-19T06:12:06.367Z,101914.73
2019-01-19T06:13:06.916Z,101914.63
2019-01-19T06:13:16.935Z,101918.75
2019-01-19T06:14:17.784Z,101917.83
2019-01-19T06:15:17.891Z,101917.34
2019-01-19T06:16:18.370Z,101917.27
2019-01-19T06:17:19.090Z,101916.91
2019-01-19T06:18:19.425Z,101917.23
2019-01-19T06:19:19.444Z,101916.81
2019-01-19T06:20:20.013Z,101916.77
2019-01-19T06:21:20.546Z,101917.00
2019-01-19T06:22:21.109Z,101916.74
2019-01-19T06:23:21.818Z,101915.95
2019-01-19T06:24:22.183Z,101915.78
2019-01-19T06:25:22.796Z,101915.92
2019-01-19T06:26:23.391Z,101915.69
2019-01-19T06:27:24.114Z,101915.42
2019-01-19T06:28:24.339Z,101915.48
2019-01-19T06:29:24.886Z,101915.39
2019-01-19T06:30:25.373Z,101915.48
2019-01-19T06:31:25.841Z,101915.39
2019-01-19T06:32:26.389Z,101915.78
2019-01-19T06:33:27.108Z,101915.86
2019-01-19T06:34:27.583Z,101915.89
2019-01-19T06:35:28.026Z,101916.05
2019-01-19T06:36:28.522Z,101916.02
2019-01-19T06:37:27.887Z,101916.35
2019-01-19T06:38:29.478Z,101915.92
2019-01-19T06:39:30.174Z,101916.02
2019-01-19T06:40:30.809Z,101915.75
2019-01-19T06:41:31.185Z,101916.69
2019-01-19T06:42:31.639Z,101916.52
2019-01-19T06:43:32.114Z,101915.98
2019-01-19T06:44:32.720Z,101915.56
2019-01-19T06:45:33.023Z,101915.16
2019-01-19T06:46:33.630Z,101915.16
2019-01-19T06:47:34.048Z,101915.39
2019-01-19T06:48:34.540Z,101915.03
2019-01-19T06:49:34.976Z,101914.70
2019-01-19T06:50:35.783Z,101913.88
2019-01-19T06:51:36.360Z,101913.12
2019-01-19T06:52:36.795Z,101912.69
2019-01-19T06:53:37.193Z,101912.09
2019-01-19T06:54:37.599Z,101911.70
2019-01-19T06:55:38.319Z,101911.44
2019-01-19T06:56:38.870Z,101911.44
2019-01-19T06:57:38.329Z,101911.50
2019-01-19T06:57:49.289Z,101906.69
2019-01-19T06:58:49.776Z,101906.42
2019-01-19T06:59:51.114Z,101906.42
2019-01-19T07:00:51.801Z,101906.84
2019-01-19T07:01:52.281Z,101906.78
2019-01-19T07:02:52.835Z,101906.88
2019-01-19T07:03:53.459Z,101906.78
2019-01-19T07:04:53.873Z,101907.11
2019-01-19T07:05:54.628Z,101906.59
2019-01-19T07:07:02.376Z,101906.91
2019-01-19T07:07:54.571Z,101906.84
2019-01-19T07:08:56.266Z,101906.42
2019-01-19T07:09:56.680Z,101906.66
2019-01-19T07:10:57.291Z,101906.81
2019-01-19T07:11:57.864Z,101906.98
2019-01-19T07:12:58.350Z,101906.78
2019-01-19T07:13:59.144Z,101906.81
2019-01-19T07:14:58.186Z,101906.62
2019-01-19T07:15:59.850Z,101906.52
2019-01-19T07:17:00.280Z,101906.59
2019-01-19T07:18:00.664Z,101906.72
2019-01-19T07:19:01.184Z,101906.29
2019-01-19T07:20:01.978Z,101907.08
2019-01-19T07:21:02.607Z,101907.11
2019-01-19T07:22:03.187Z,101907.15
2019-01-19T07:23:03.623Z,101907.31
2019-01-19T07:24:04.099Z,101907.61
2019-01-19T07:25:04.500Z,101907.64
2019-01-19T07:26:04.844Z,101907.38
2019-01-19T07:27:05.237Z,101907.55
2019-01-19T07:28:05.868Z,101908.10
2019-01-19T07:29:06.525Z,101908.83
2019-01-19T07:30:07.367Z,101909.42
2019-01-19T07:31:08.305Z,101909.75
2019-01-19T07:32:08.704Z,101909.75
2019-01-19T07:33:09.008Z,101910.64
2019-01-19T07:34:09.336Z,101911.07
2019-01-19T07:35:09.813Z,101911.23
2019-01-19T07:36:10.459Z,101911.66
2019-01-19T07:37:10.856Z,101912.26
2019-01-19T07:38:11.446Z,101912.82
2019-01-19T07:39:11.897Z,101912.92
2019-01-19T07:40:12.301Z,101913.41
2019-01-19T07:41:12.839Z,101913.58
2019-01-19T07:42:13.394Z,101914.27
2019-01-19T07:43:13.960Z,101914.77
2019-01-19T07:44:14.367Z,101914.97
2019-01-19T07:44:24.292Z,101927.53
2019-01-19T07:45:25.676Z,101926.97
2019-01-19T07:46:26.432Z,101926.64
2019-01-19T07:47:25.780Z,101925.72
2019-01-19T07:48:27.207Z,101925.42
2019-01-19T07:49:27.744Z,101925.27
2019-01-19T07:50:28.287Z,101924.70
2019-01-19T07:51:28.853Z,101924.80
2019-01-19T07:52:29.191Z,101924.80
2019-01-19T07:53:29.879Z,101925.00
2019-01-19T07:54:30.262Z,101924.50
2019-01-19T07:55:30.676Z,101924.83
2019-01-19T07:56:31.031Z,101924.41
2019-01-19T07:57:31.797Z,101924.80
2019-01-19T07:58:32.296Z,101925.30
2019-01-19T07:59:32.857Z,101925.09
2019-01-19T08:00:33.495Z,101925.19
2019-01-19T08:01:34.100Z,101925.16
2019-01-19T08:02:34.680Z,101925.22
2019-01-19T08:03:35.341Z,101926.22
2019-01-19T08:04:35.738Z,101926.55
2019-01-19T08:05:36.624Z,101926.22
2019-01-19T08:06:37.215Z,101926.48
2019-01-19T08:07:37.806Z,101927.08
2019-01-19T08:08:38.358Z,101926.94
2019-01-19T08:09:38.917Z,101927.27
2019-01-19T08:10:39.491Z,101927.64
2019-01-19T08:11:40.127Z,101928.13
2019-01-19T08:12:41.008Z,101928.49
2019-01-19T08:13:41.626Z,101928.98
2019-01-19T08:14:42.138Z,101928.76
2019-01-19T08:15:43.091Z,101929.09
2019-01-19T08:16:43.635Z,101928.86
2019-01-19T08:17:44.099Z,101928.89
2019-01-19T08:18:44.749Z,101929.05
2019-01-19T08:19:45.241Z,101929.65
2019-01-19T08:20:45.765Z,101929.84
2019-01-19T08:21:46.393Z,101930.61
2019-01-19T08:22:46.810Z,101930.61
2019-01-19T08:23:47.366Z,101931.20
2019-01-19T08:24:48.004Z,101931.50
2019-01-19T08:25:48.427Z,101931.33
2019-01-19T08:26:49.160Z,101931.43
2019-01-19T08:27:03.007Z,101937.63
2019-01-19T08:28:01.349Z,101936.73
2019-01-19T08:28:59.829Z,101936.41
2019-01-19T08:30:01.461Z,101936.31
2019-01-19T08:31:01.923Z,101936.41
2019-01-19T08:32:02.463Z,101936.14
2019-01-19T08:33:03.071Z,101936.14
2019-01-19T08:34:03.497Z,101935.98
2019-01-19T08:35:03.914Z,101936.08
2019-01-19T08:36:04.348Z,101936.27
2019-01-19T08:37:04.757Z,101935.84
2019-01-19T08:38:05.171Z,101935.88
2019-01-19T08:39:05.646Z,101935.64
2019-01-19T08:40:06.077Z,101935.74
2019-01-19T08:41:06.553Z,101935.18
2019-01-19T08:42:06.942Z,101934.48
2019-01-19T08:43:07.640Z,101934.42
2019-01-19T08:44:08.036Z,101933.76
2019-01-19T08:45:08.611Z,101933.30
2019-01-19T08:46:09.322Z,101933.12
2019-01-19T08:47:09.904Z,101933.12
2019-01-19T08:48:10.298Z,101932.08
2019-01-19T08:49:10.819Z,101932.08
2019-01-19T08:50:11.164Z,101931.84
2019-01-19T08:51:11.625Z,101931.45
2019-01-19T08:52:12.015Z,101931.22
2019-01-19T08:53:12.741Z,101930.45
2019-01-19T08:54:13.174Z,101929.80
2019-01-19T08:55:13.596Z,101929.73
2019-01-19T08:56:14.239Z,101928.80
2019-01-19T08:57:14.581Z,101928.14
2019-01-19T08:58:15.491Z,101927.58
2019-01-19T08:59:16.003Z,101927.25
2019-01-19T09:00:16.988Z,101927.19
2019-01-19T09:01:17.931Z,101926.20
2019-01-19T09:02:18.489Z,101925.80
2019-01-19T09:03:18.897Z,101925.80
2019-01-19T09:04:19.507Z,101925.27
2019-01-19T09:05:19.892Z,101924.52
2019-01-19T09:06:20.556Z,101923.78
2019-01-19T09:07:20.890Z,101923.23
2019-01-19T09:08:21.230Z,101922.89
2019-01-19T09:09:21.791Z,101922.50
2019-01-19T09:10:10.484Z,101920.11
2019-01-19T09:11:11.941Z,101919.55
2019-01-19T09:12:12.442Z,101918.79
2019-01-19T09:13:12.948Z,101918.49
2019-01-19T09:14:13.568Z,101918.42
2019-01-19T09:15:14.193Z,101918.20
2019-01-19T09:16:14.722Z,101917.73
2019-01-19T09:17:15.219Z,101917.53
2019-01-19T09:18:15.733Z,101916.73
2019-01-19T09:19:15.481Z,101916.70
2019-01-19T09:20:17.162Z,101916.33
2019-01-19T09:21:17.822Z,101915.63
2019-01-19T09:22:17.296Z,101915.40
2019-01-19T09:23:18.704Z,101915.33
2019-01-19T09:24:19.204Z,101915.03
2019-01-19T09:25:19.697Z,101914.80
2019-01-19T09:26:20.262Z,101914.01
2019-01-19T09:27:20.708Z,101914.44
2019-01-19T09:28:21.215Z,101914.04
2019-01-19T09:29:21.595Z,101913.88
2019-01-19T09:30:21.909Z,101913.80
2019-01-19T09:31:22.401Z,101913.38
2019-01-19T09:32:22.895Z,101913.21
2019-01-19T09:33:22.905Z,101912.98
2019-01-19T09:34:23.278Z,101912.88
2019-01-19T09:35:22.695Z,101912.58
2019-01-19T09:36:24.310Z,101912.25
2019-01-19T09:37:25.111Z,101912.28
2019-01-19T09:38:25.552Z,101912.38
2019-01-19T09:39:26.048Z,101911.88
2019-01-19T09:40:26.618Z,101911.55
2019-01-19T09:41:27.365Z,101911.16
2019-01-19T09:42:27.748Z,101910.09
2019-01-19T09:43:28.174Z,101909.80
2019-01-19T09:44:28.703Z,101909.59
2019-01-19T09:45:29.144Z,101908.77
2019-01-19T09:46:29.648Z,101908.73
2019-01-19T09:47:30.173Z,101908.80
2019-01-19T09:48:30.623Z,101908.42
2019-01-19T09:49:31.142Z,101908.16
2019-01-19T09:50:31.623Z,101907.63
2019-01-19T09:51:32.255Z,101907.52
2019-01-19T09:52:32.985Z,101907.05
2019-01-19T09:53:33.570Z,101906.77
2019-01-19T09:54:34.253Z,101906.06
2019-01-19T09:55:33.799Z,101905.73
2019-01-19T09:55:42.205Z,101900.39
2019-01-19T09:56:42.560Z,101899.97
2019-01-19T09:57:44.303Z,101899.73
2019-01-19T09:58:44.695Z,101900.42
2019-01-19T09:59:45.025Z,101900.33
2019-01-19T10:00:45.956Z,101899.77
2019-01-19T10:01:46.569Z,101899.59
2019-01-19T10:02:45.847Z,101899.36
2019-01-19T10:03:46.985Z,101899.23
2019-01-19T10:04:47.719Z,101898.80
2019-01-19T10:05:48.404Z,101897.84
2019-01-19T10:06:48.415Z,101897.92
2019-01-19T10:07:49.006Z,101896.87
2019-01-19T10:08:48.603Z,101896.23
2019-01-19T10:09:50.278Z,101895.34
2019-01-19T10:10:50.991Z,101894.20
2019-01-19T10:11:51.502Z,101893.38
2019-01-19T10:12:52.214Z,101893.08
2019-01-19T10:13:52.044Z,101892.09
2019-01-19T10:14:53.482Z,101891.66
2019-01-19T10:15:54.077Z,101890.99
2019-01-19T10:16:54.638Z,101889.84
2019-01-19T10:17:55.078Z,101889.53
2019-01-19T10:18:55.993Z,101888.97
2019-01-19T10:19:56.397Z,101888.05
2019-01-19T10:20:56.866Z,101887.05
2019-01-19T10:21:57.304Z,101886.66
2019-01-19T10:22:57.874Z,101885.40
2019-01-19T10:23:58.284Z,101884.87
2019-01-19T10:24:58.707Z,101884.20
2019-01-19T10:25:59.239Z,101883.38
2019-01-19T10:26:59.813Z,101883.23
2019-01-19T10:28:00.166Z,101882.73
2019-01-19T10:29:00.570Z,101882.34
2019-01-19T10:30:01.040Z,101882.10
2019-01-19T10:31:00.548Z,101880.97
2019-01-19T10:32:03.359Z,101880.31
2019-01-19T10:33:02.082Z,101879.91
2019-01-19T10:34:02.067Z,101879.58
2019-01-19T10:35:03.456Z,101879.34
2019-01-19T10:36:04.099Z,101878.36
2019-01-19T10:37:14.529Z,101878.45
2019-01-19T10:38:07.414Z,101877.27
2019-01-19T10:39:09.183Z,101877.16
2019-01-19T10:40:06.718Z,101875.84
2019-01-19T10:41:07.440Z,101874.92
2019-01-19T10:42:07.935Z,101874.59
2019-01-19T10:43:08.376Z,101873.34
2019-01-19T10:44:08.722Z,101872.11
2019-01-19T10:45:09.165Z,101871.09
2019-01-19T10:45:22.227Z,101857.27
2019-01-19T10:46:23.330Z,101856.51
2019-01-19T10:47:23.006Z,101856.61
2019-01-19T10:48:24.620Z,101855.84
2019-01-19T10:49:25.336Z,101855.84
2019-01-19T10:50:25.009Z,101854.86
2019-01-19T10:51:24.898Z,101854.45
2019-01-19T10:53:37.230Z,101842.77
2019-01-19T10:54:37.332Z,101842.70
2019-01-19T10:55:37.603Z,101842.04
2019-01-19T10:56:37.177Z,101841.12
2019-01-19T10:57:38.556Z,101840.13
2019-01-19T10:59:52.821Z,101819.20
2019-01-19T11:00:54.223Z,101819.53
2019-01-19T11:01:54.772Z,101819.70
2019-01-19T11:02:55.348Z,101819.63
2019-01-19T11:03:55.777Z,101819.46
2019-01-19T11:04:56.231Z,101819.23
2019-01-19T11:05:56.614Z,101819.23
2019-01-19T11:06:57.218Z,101818.66
2019-01-19T11:08:03.634Z,101818.33
2019-01-19T11:08:57.295Z,101817.36
2019-01-19T11:09:58.812Z,101816.80
2019-01-19T11:10:59.265Z,101815.56
2019-01-19T11:11:59.649Z,101814.70
2019-01-19T11:13:00.089Z,101813.73
2019-01-19T11:14:00.517Z,101812.83
2019-01-19T11:15:00.858Z,101811.36
2019-01-19T11:16:01.191Z,101810.23
2019-01-19T11:17:00.584Z,101809.45
2019-01-19T11:18:01.997Z,101808.06
2019-01-19T11:19:02.457Z,101807.28
2019-01-19T11:20:03.100Z,101806.22
2019-01-19T11:21:03.390Z,101805.35